Current Weather

Fulton County Airport

Fulton County Airport, Indiana (KRCR)

Report from: Thursday, May 19, 2022 2:35 PM EDT
Current time: Thursday, May 19, 2022 3:03 PM EDT

Nearby weather
Weather history
Weather forecast

Temperature25.0°C (77.0°F)
Dew point18.0°C (64.4°F)
Winds 8 kts (4.1 m/s, 9.2 mph) South-Southwest (210°)
Wind gusts 16 kts (8.2 m/s, 18.4 mph)
Visibility10 mi. (16.1 km)
Clouds Sky clear
Altimeter29.71 in.Hg (1006 mB)
Relative humidity65 %
Density altitude1,681 ft. (512 m)
Remarks Fully automated report
Automated weather observing station with precipitation discriminator
Flight conditions Visual Meteorological Conditions
Raw dataKRCR 191835Z AUTO 21008G16KT 10SM CLR 25/18 A2971 RMK AO2
An error has occurred. This application may no longer respond until reloaded. Reload 🗙